sensor_id;sensor_type;location;lat;lon;timestamp;pressure;altitude;pressure_sealevel;temperature;humidity
75629;BME280;64213;46.452;16.994;2023-03-01T00:00:38;100973.06;;;2.69;77.20
75629;BME280;64213;46.452;16.994;2023-03-01T00:03:40;100964.38;;;2.67;77.32
75629;BME280;64213;46.452;16.994;2023-03-01T00:06:43;100968.78;;;2.63;77.03
75629;BME280;64213;46.452;16.994;2023-03-01T00:09:47;100967.88;;;2.66;77.44
75629;BME280;64213;46.452;16.994;2023-03-01T00:12:51;100960.06;;;2.66;77.52
75629;BME280;64213;46.452;16.994;2023-03-01T00:15:53;100962.72;;;2.63;77.28
75629;BME280;64213;46.452;16.994;2023-03-01T00:18:57;100957.47;;;2.63;77.49
75629;BME280;64213;46.452;16.994;2023-03-01T00:21:59;100958.34;;;2.63;77.62
75629;BME280;64213;46.452;16.994;2023-03-01T00:25:02;100942.66;;;2.63;77.41
75629;BME280;64213;46.452;16.994;2023-03-01T00:28:04;100947.94;;;2.62;77.37
75629;BME280;64213;46.452;16.994;2023-03-01T00:31:10;100946.28;;;2.56;76.83
75629;BME280;64213;46.452;16.994;2023-03-01T00:34:12;100934.03;;;2.60;77.25
75629;BME280;64213;46.452;16.994;2023-03-01T00:37:15;100921.81;;;2.60;77.22
75629;BME280;64213;46.452;16.994;2023-03-01T00:40:20;100931.47;;;2.56;77.61
75629;BME280;64213;46.452;16.994;2023-03-01T00:43:22;100917.63;;;2.51;77.88
75629;BME280;64213;46.452;16.994;2023-03-01T00:46:26;100928.84;;;2.56;78.17
75629;BME280;64213;46.452;16.994;2023-03-01T00:49:29;100923.72;;;2.50;78.29
75629;BME280;64213;46.452;16.994;2023-03-01T00:52:31;100923.69;;;2.52;78.77
75629;BME280;64213;46.452;16.994;2023-03-01T00:55:33;100910.72;;;2.47;78.61
75629;BME280;64213;46.452;16.994;2023-03-01T00:58:35;100921.91;;;2.55;78.77
75629;BME280;64213;46.452;16.994;2023-03-01T01:01:38;100915.91;;;2.50;78.68
75629;BME280;64213;46.452;16.994;2023-03-01T01:04:41;100921.13;;;2.50;78.77
75629;BME280;64213;46.452;16.994;2023-03-01T01:07:43;100906.44;;;2.43;78.92
75629;BME280;64213;46.452;16.994;2023-03-01T01:10:46;100909.06;;;2.42;79.21
75629;BME280;64213;46.452;16.994;2023-03-01T01:13:49;100902.91;;;2.47;78.90
75629;BME280;64213;46.452;16.994;2023-03-01T01:16:51;100889.00;;;2.45;78.99
75629;BME280;64213;46.452;16.994;2023-03-01T01:19:54;100896.78;;;2.48;78.58
75629;BME280;64213;46.452;16.994;2023-03-01T01:22:56;100902.84;;;2.50;78.92
75629;BME280;64213;46.452;16.994;2023-03-01T01:26:04;100898.56;;;2.46;78.79
75629;BME280;64213;46.452;16.994;2023-03-01T01:29:07;100889.78;;;2.49;78.84
75629;BME280;64213;46.452;16.994;2023-03-01T01:32:10;100883.72;;;2.48;78.90
75629;BME280;64213;46.452;16.994;2023-03-01T01:35:12;100885.41;;;2.52;79.08
75629;BME280;64213;46.452;16.994;2023-03-01T01:38:14;100887.19;;;2.49;78.88
75629;BME280;64213;46.452;16.994;2023-03-01T01:41:17;100889.75;;;2.52;78.60
75629;BME280;64213;46.452;16.994;2023-03-01T01:47:22;100877.63;;;2.49;78.72
75629;BME280;64213;46.452;16.994;2023-03-01T01:50:25;100877.59;;;2.51;78.53
75629;BME280;64213;46.452;16.994;2023-03-01T01:53:28;100861.97;;;2.49;78.45
75629;BME280;64213;46.452;16.994;2023-03-01T01:56:30;100863.63;;;2.52;78.50
75629;BME280;64213;46.452;16.994;2023-03-01T01:59:33;100867.19;;;2.49;78.60
75629;BME280;64213;46.452;16.994;2023-03-01T02:02:37;100872.34;;;2.52;78.41
75629;BME280;64213;46.452;16.994;2023-03-01T02:06:12;100865.44;;;2.48;78.35
75629;BME280;64213;46.452;16.994;2023-03-01T02:09:20;100867.16;;;2.51;78.43
75629;BME280;64213;46.452;16.994;2023-03-01T02:12:24;100868.91;;;2.50;78.62
75629;BME280;64213;46.452;16.994;2023-03-01T02:15:32;100875.88;;;2.48;78.68
75629;BME280;64213;46.452;16.994;2023-03-01T02:18:35;100867.19;;;2.48;78.80
75629;BME280;64213;46.452;16.994;2023-03-01T02:21:38;100868.09;;;2.47;79.15
75629;BME280;64213;46.452;16.994;2023-03-01T02:31:18;100858.56;;;2.44;79.40
75629;BME280;64213;46.452;16.994;2023-03-01T02:34:39;100852.47;;;2.44;79.51
75629;BME280;64213;46.452;16.994;2023-03-01T02:37:42;100848.91;;;2.48;79.49
75629;BME280;64213;46.452;16.994;2023-03-01T02:40:47;100855.84;;;2.49;79.49
75629;BME280;64213;46.452;16.994;2023-03-01T02:43:51;100850.63;;;2.49;79.47
75629;BME280;64213;46.452;16.994;2023-03-01T02:46:56;100850.63;;;2.49;79.89
75629;BME280;64213;46.452;16.994;2023-03-01T02:49:59;100848.88;;;2.51;79.37
75629;BME280;64213;46.452;16.994;2023-03-01T02:53:15;100846.28;;;2.49;79.67
75629;BME280;64213;46.452;16.994;2023-03-01T02:56:19;100848.91;;;2.49;79.56
75629;BME280;64213;46.452;16.994;2023-03-01T02:59:24;100841.13;;;2.45;79.70
75629;BME280;64213;46.452;16.994;2023-03-01T03:02:31;100834.25;;;2.39;79.15
75629;BME280;64213;46.452;16.994;2023-03-01T03:05:39;100844.66;;;2.42;79.26
75629;BME280;64213;46.452;16.994;2023-03-01T03:08:41;100844.59;;;2.45;79.13
75629;BME280;64213;46.452;16.994;2023-03-01T03:11:44;100841.97;;;2.47;79.21
75629;BME280;64213;46.452;16.994;2023-03-01T03:14:46;100827.37;;;2.37;79.13
75629;BME280;64213;46.452;16.994;2023-03-01T03:17:49;100842.03;;;2.42;79.09
75629;BME280;64213;46.452;16.994;2023-03-01T03:20:53;100839.50;;;2.39;79.04
75629;BME280;64213;46.452;16.994;2023-03-01T03:23:56;100843.78;;;2.43;78.95
75629;BME280;64213;46.452;16.994;2023-03-01T03:26:59;100840.34;;;2.41;78.80
75629;BME280;64213;46.452;16.994;2023-03-01T03:30:02;100838.53;;;2.45;78.48
75629;BME280;64213;46.452;16.994;2023-03-01T03:33:05;100830.72;;;2.43;78.44
75629;BME280;64213;46.452;16.994;2023-03-01T03:36:07;100829.87;;;2.43;78.29
75629;BME280;64213;46.452;16.994;2023-03-01T03:39:14;100830.84;;;2.37;78.31
75629;BME280;64213;46.452;16.994;2023-03-01T03:42:16;100830.84;;;2.37;78.44
75629;BME280;64213;46.452;16.994;2023-03-01T03:45:18;100830.00;;;2.35;78.75
75629;BME280;64213;46.452;16.994;2023-03-01T03:48:21;100838.88;;;2.25;79.50
75629;BME280;64213;46.452;16.994;2023-03-01T03:51:23;100838.13;;;2.17;80.25
75629;BME280;64213;46.452;16.994;2023-03-01T03:54:25;100840.75;;;2.17;80.93
75629;BME280;64213;46.452;16.994;2023-03-01T03:57:27;100831.25;;;2.13;81.23
75629;BME280;64213;46.452;16.994;2023-03-01T04:00:30;100838.19;;;2.15;81.70
75629;BME280;64213;46.452;16.994;2023-03-01T04:03:32;100833.75;;;2.19;82.77
75629;BME280;64213;46.452;16.994;2023-03-01T04:06:36;100839.06;;;2.14;82.29
75629;BME280;64213;46.452;16.994;2023-03-01T04:09:39;100835.56;;;2.14;82.44
75629;BME280;64213;46.452;16.994;2023-03-01T04:12:41;100827.88;;;2.07;82.99
75629;BME280;64213;46.452;16.994;2023-03-01T04:15:54;100827.03;;;2.04;83.68
75629;BME280;64213;46.452;16.994;2023-03-01T04:18:56;100818.44;;;1.99;83.98
75629;BME280;64213;46.452;16.994;2023-03-01T04:22:02;100806.37;;;1.92;84.76
75629;BME280;64213;46.452;16.994;2023-03-01T04:25:11;100801.28;;;1.85;85.16
75629;BME280;64213;46.452;16.994;2023-03-01T04:28:15;100804.62;;;1.92;85.13
75629;BME280;64213;46.452;16.994;2023-03-01T04:31:20;100808.09;;;1.93;85.83
75629;BME280;64213;46.452;16.994;2023-03-01T04:34:23;100814.25;;;1.89;85.48
75629;BME280;64213;46.452;16.994;2023-03-01T04:37:26;100814.31;;;1.84;86.20
75629;BME280;64213;46.452;16.994;2023-03-01T04:40:30;100817.91;;;1.77;87.26
75629;BME280;64213;46.452;16.994;2023-03-01T04:43:33;100819.53;;;1.84;87.12
75629;BME280;64213;46.452;16.994;2023-03-01T04:46:35;100813.56;;;1.77;87.14
75629;BME280;64213;46.452;16.994;2023-03-01T04:49:38;100811.00;;;1.76;88.29
75629;BME280;64213;46.452;16.994;2023-03-01T04:52:40;100812.75;;;1.74;88.33
75629;BME280;64213;46.452;16.994;2023-03-01T04:55:42;100810.91;;;1.82;88.18
75629;BME280;64213;46.452;16.994;2023-03-01T04:58:46;100811.78;;;1.79;88.69
75629;BME280;64213;46.452;16.994;2023-03-01T05:01:49;100813.50;;;1.82;89.11
75629;BME280;64213;46.452;16.994;2023-03-01T05:04:51;100809.16;;;1.82;88.67
75629;BME280;64213;46.452;16.994;2023-03-01T05:07:59;100822.31;;;1.72;90.79
75629;BME280;64213;46.452;16.994;2023-03-01T05:11:05;100816.28;;;1.70;90.67
75629;BME280;64213;46.452;16.994;2023-03-01T05:14:10;100818.22;;;1.55;91.97
75629;BME280;64213;46.452;16.994;2023-03-01T05:17:12;100823.34;;;1.63;92.81
75629;BME280;64213;46.452;16.994;2023-03-01T05:20:15;100832.03;;;1.63;92.16
75629;BME280;64213;46.452;16.994;2023-03-01T05:23:18;100829.56;;;1.54;92.80
75629;BME280;64213;46.452;16.994;2023-03-01T05:26:21;100833.87;;;1.55;93.58
75629;BME280;64213;46.452;16.994;2023-03-01T05:29:31;100838.19;;;1.58;93.66
75629;BME280;64213;46.452;16.994;2023-03-01T05:32:36;100840.91;;;1.50;93.62
75629;BME280;64213;46.452;16.994;2023-03-01T05:35:42;100834.78;;;1.53;94.17
75629;BME280;64213;46.452;16.994;2023-03-01T05:38:45;100844.38;;;1.49;94.22
75629;BME280;64213;46.452;16.994;2023-03-01T05:41:47;100841.75;;;1.52;94.76
75629;BME280;64213;46.452;16.994;2023-03-01T05:44:49;100841.75;;;1.52;94.79
75629;BME280;64213;46.452;16.994;2023-03-01T05:47:53;100844.31;;;1.55;95.46
75629;BME280;64213;46.452;16.994;2023-03-01T05:50:59;100846.94;;;1.52;95.07
75629;BME280;64213;46.452;16.994;2023-03-01T05:54:02;100845.16;;;1.56;95.59
75629;BME280;64213;46.452;16.994;2023-03-01T05:57:07;100851.25;;;1.55;95.54
75629;BME280;64213;46.452;16.994;2023-03-01T06:00:10;100847.00;;;1.49;95.85
75629;BME280;64213;46.452;16.994;2023-03-01T06:03:16;100848.66;;;1.55;95.59
75629;BME280;64213;46.452;16.994;2023-03-01T06:06:18;100844.50;;;1.40;95.70
75629;BME280;64213;46.452;16.994;2023-03-01T06:09:21;100855.81;;;1.41;96.41
75629;BME280;64213;46.452;16.994;2023-03-01T06:12:23;100848.78;;;1.47;96.33
75629;BME280;64213;46.452;16.994;2023-03-01T06:15:25;100854.00;;;1.47;96.21
75629;BME280;64213;46.452;16.994;2023-03-01T06:18:27;100849.63;;;1.46;96.35
75629;BME280;64213;46.452;16.994;2023-03-01T06:21:30;100856.63;;;1.44;96.77
75629;BME280;64213;46.452;16.994;2023-03-01T06:24:32;100859.38;;;1.35;97.00
75629;BME280;64213;46.452;16.994;2023-03-01T06:27:35;100865.31;;;1.43;97.11
75629;BME280;64213;46.452;16.994;2023-03-01T06:30:38;100861.00;;;1.44;97.27
75629;BME280;64213;46.452;16.994;2023-03-01T06:33:40;100868.66;;;1.54;97.58
75629;BME280;64213;46.452;16.994;2023-03-01T06:36:42;100865.13;;;1.58;97.40
75629;BME280;64213;46.452;16.994;2023-03-01T06:39:44;100873.78;;;1.60;97.18
75629;BME280;64213;46.452;16.994;2023-03-01T06:42:50;100867.69;;;1.63;97.33
75629;BME280;64213;46.452;16.994;2023-03-01T06:45:52;100873.78;;;1.60;97.32
75629;BME280;64213;46.452;16.994;2023-03-01T06:48:54;100877.22;;;1.62;97.21
75629;BME280;64213;46.452;16.994;2023-03-01T06:51:57;100882.44;;;1.62;97.11
75629;BME280;64213;46.452;16.994;2023-03-01T06:55:01;100880.72;;;1.61;97.67
75629;BME280;64213;46.452;16.994;2023-03-01T06:58:03;100875.56;;;1.58;97.85
75629;BME280;64213;46.452;16.994;2023-03-01T07:01:08;100875.72;;;1.48;98.09
75629;BME280;64213;46.452;16.994;2023-03-01T07:04:12;100871.37;;;1.45;98.60
75629;BME280;64213;46.452;16.994;2023-03-01T07:07:14;100863.59;;;1.44;99.12
75629;BME280;64213;46.452;16.994;2023-03-01T07:10:20;100874.84;;;1.47;98.98
75629;BME280;64213;46.452;16.994;2023-03-01T07:13:23;100873.03;;;1.54;99.49
75629;BME280;64213;46.452;16.994;2023-03-01T07:16:25;100881.69;;;1.54;99.41
75629;BME280;64213;46.452;16.994;2023-03-01T07:19:27;100884.34;;;1.50;99.26
75629;BME280;64213;46.452;16.994;2023-03-01T07:22:30;100876.47;;;1.54;99.56
75629;BME280;64213;46.452;16.994;2023-03-01T07:25:32;100884.31;;;1.54;99.61
75629;BME280;64213;46.452;16.994;2023-03-01T07:28:34;100877.37;;;1.52;99.50
75629;BME280;64213;46.452;16.994;2023-03-01T07:31:40;100875.50;;;1.61;99.83
75629;BME280;64213;46.452;16.994;2023-03-01T07:34:42;100875.53;;;1.60;99.89
75629;BME280;64213;46.452;16.994;2023-03-01T07:37:44;100866.72;;;1.69;100.00
75629;BME280;64213;46.452;16.994;2023-03-01T07:40:47;100864.00;;;1.76;99.97
75629;BME280;64213;46.452;16.994;2023-03-01T07:43:49;100871.88;;;1.72;99.69
75629;BME280;64213;46.452;16.994;2023-03-01T07:46:52;100867.59;;;1.69;100.00
75629;BME280;64213;46.452;16.994;2023-03-01T07:49:58;100859.69;;;1.74;99.79
75629;BME280;64213;46.452;16.994;2023-03-01T07:53:00;100859.75;;;1.71;100.00
75629;BME280;64213;46.452;16.994;2023-03-01T07:56:04;100851.88;;;1.74;100.00
75629;BME280;64213;46.452;16.994;2023-03-01T07:59:07;100854.41;;;1.78;100.00
75629;BME280;64213;46.452;16.994;2023-03-01T08:02:10;100847.50;;;1.76;100.00
75629;BME280;64213;46.452;16.994;2023-03-01T08:05:12;100844.91;;;1.76;100.00
75629;BME280;64213;46.452;16.994;2023-03-01T08:08:15;100843.94;;;1.80;100.00
75629;BME280;64213;46.452;16.994;2023-03-01T08:11:18;100836.03;;;1.84;100.00
75629;BME280;64213;46.452;16.994;2023-03-01T08:14:21;100841.16;;;1.91;100.00
75629;BME280;64213;46.452;16.994;2023-03-01T08:17:23;100832.38;;;1.96;100.00
75629;BME280;64213;46.452;16.994;2023-03-01T08:20:25;100829.78;;;1.96;100.00
75629;BME280;64213;46.452;16.994;2023-03-01T08:23:27;100834.09;;;1.97;100.00
75629;BME280;64213;46.452;16.994;2023-03-01T08:26:30;100828.88;;;1.99;100.00
75629;BME280;64213;46.452;16.994;2023-03-01T08:29:33;100821.06;;;1.97;100.00
75629;BME280;64213;46.452;16.994;2023-03-01T08:32:39;100817.50;;;2.04;100.00
75629;BME280;64213;46.452;16.994;2023-03-01T08:35:41;100816.59;;;2.05;100.00
75629;BME280;64213;46.452;16.994;2023-03-01T08:38:43;100820.88;;;2.09;100.00
75629;BME280;64213;46.452;16.994;2023-03-01T08:41:46;100809.63;;;2.07;100.00
75629;BME280;64213;46.452;16.994;2023-03-01T08:44:49;100811.22;;;2.15;100.00
75629;BME280;64213;46.452;16.994;2023-03-01T08:47:53;100804.25;;;2.15;100.00
75629;BME280;64213;46.452;16.994;2023-03-01T08:50:57;100802.59;;;2.11;100.00
75629;BME280;64213;46.452;16.994;2023-03-01T08:54:14;100795.63;;;2.12;100.00
75629;BME280;64213;46.452;16.994;2023-03-01T08:57:17;100794.78;;;2.09;100.00
75629;BME280;64213;46.452;16.994;2023-03-01T09:00:21;100795.47;;;2.21;100.00
75629;BME280;64213;46.452;16.994;2023-03-01T09:03:24;100794.72;;;2.14;100.00
75629;BME280;64213;46.452;16.994;2023-03-01T09:06:30;100791.91;;;2.25;100.00
75629;BME280;64213;46.452;16.994;2023-03-01T09:09:33;100785.84;;;2.23;100.00
75629;BME280;64213;46.452;16.994;2023-03-01T09:12:35;100784.91;;;2.27;100.00
75629;BME280;64213;46.452;16.994;2023-03-01T09:15:37;100788.28;;;2.33;100.00
75629;BME280;64213;46.452;16.994;2023-03-01T09:18:40;100790.09;;;2.30;100.00
75629;BME280;64213;46.452;16.994;2023-03-01T09:21:42;100787.53;;;2.25;100.00
75629;BME280;64213;46.452;16.994;2023-03-01T09:24:53;100797.03;;;2.29;100.00
75629;BME280;64213;46.452;16.994;2023-03-01T09:27:55;100795.38;;;2.25;100.00
75629;BME280;64213;46.452;16.994;2023-03-01T09:30:59;100798.72;;;2.32;100.00
75629;BME280;64213;46.452;16.994;2023-03-01T09:34:02;100796.22;;;2.26;100.00
75629;BME280;64213;46.452;16.994;2023-03-01T09:37:04;100805.69;;;2.33;100.00
75629;BME280;64213;46.452;16.994;2023-03-01T09:40:12;100809.09;;;2.35;100.00
75629;BME280;64213;46.452;16.994;2023-03-01T09:46:42;100807.25;;;2.43;100.00
75629;BME280;64213;46.452;16.994;2023-03-01T09:53:24;100829.13;;;2.35;100.00
75629;BME280;64213;46.452;16.994;2023-03-01T09:56:41;100818.59;;;2.39;100.00
75629;BME280;64213;46.452;16.994;2023-03-01T10:03:21;100781.56;;;2.19;100.00
75629;BME280;64213;46.452;16.994;2023-03-01T10:06:28;100807.34;;;2.36;100.00
75629;BME280;64213;46.452;16.994;2023-03-01T10:09:39;100804.91;;;2.26;100.00
75629;BME280;64213;46.452;16.994;2023-03-01T10:12:42;100808.47;;;2.24;100.00
75629;BME280;64213;46.452;16.994;2023-03-01T10:15:57;100806.59;;;2.29;100.00
75629;BME280;64213;46.452;16.994;2023-03-01T10:19:05;100811.75;;;2.33;100.00
75629;BME280;64213;46.452;16.994;2023-03-01T10:22:16;100805.59;;;2.36;100.00
75629;BME280;64213;46.452;16.994;2023-03-01T10:25:42;100800.31;;;2.41;100.00
75629;BME280;64213;46.452;16.994;2023-03-01T10:28:58;100798.59;;;2.40;100.00
75629;BME280;64213;46.452;16.994;2023-03-01T10:32:04;100794.28;;;2.37;100.00
75629;BME280;64213;46.452;16.994;2023-03-01T10:35:20;100784.72;;;2.36;100.00
75629;BME280;64213;46.452;16.994;2023-03-01T10:38:23;100785.50;;;2.41;100.00
75629;BME280;64213;46.452;16.994;2023-03-01T10:41:27;100783.50;;;2.55;100.00
75629;BME280;64213;46.452;16.994;2023-03-01T10:44:44;100783.41;;;2.60;100.00
75629;BME280;64213;46.452;16.994;2023-03-01T10:48:03;100791.09;;;2.68;100.00
75629;BME280;64213;46.452;16.994;2023-03-01T10:51:07;100796.25;;;2.71;100.00
75629;BME280;64213;46.452;16.994;2023-03-01T10:54:35;100781.66;;;2.61;100.00
75629;BME280;64213;46.452;16.994;2023-03-01T10:57:39;100778.91;;;2.68;100.00
75629;BME280;64213;46.452;16.994;2023-03-01T11:00:56;100779.81;;;2.66;100.00
75629;BME280;64213;46.452;16.994;2023-03-01T11:04:19;100780.69;;;2.65;100.00
75629;BME280;64213;46.452;16.994;2023-03-01T11:07:21;100775.34;;;2.71;100.00
75629;BME280;64213;46.452;16.994;2023-03-01T11:10:29;100768.28;;;2.76;100.00
75629;BME280;64213;46.452;16.994;2023-03-01T11:13:33;100757.94;;;2.71;100.00
75629;BME280;64213;46.452;16.994;2023-03-01T11:16:38;100751.22;;;2.60;100.00
75629;BME280;64213;46.452;16.994;2023-03-01T11:19:41;100756.31;;;2.66;100.00
75629;BME280;64213;46.452;16.994;2023-03-01T11:22:54;100752.06;;;2.62;100.00
75629;BME280;64213;46.452;16.994;2023-03-01T11:26:00;100751.78;;;2.74;100.00
75629;BME280;64213;46.452;16.994;2023-03-01T11:29:07;100747.34;;;2.77;100.00
75629;BME280;64213;46.452;16.994;2023-03-01T11:32:15;100741.31;;;2.75;100.00
75629;BME280;64213;46.452;16.994;2023-03-01T11:35:23;100743.06;;;2.75;100.00
75629;BME280;64213;46.452;16.994;2023-03-01T11:38:29;100739.44;;;2.82;100.00
75629;BME280;64213;46.452;16.994;2023-03-01T11:41:35;100728.97;;;2.82;100.00
75629;BME280;64213;46.452;16.994;2023-03-01T11:44:39;100718.41;;;2.88;100.00
75629;BME280;64213;46.452;16.994;2023-03-01T11:51:09;100709.53;;;2.95;100.00
75629;BME280;64213;46.452;16.994;2023-03-01T11:54:27;100703.38;;;2.98;100.00
75629;BME280;64213;46.452;16.994;2023-03-01T12:01:14;100691.63;;;3.17;100.00
75629;BME280;64213;46.452;16.994;2023-03-01T12:11:50;100685.13;;;3.34;99.41
75629;BME280;64213;46.452;16.994;2023-03-01T12:25:25;100671.84;;;3.41;98.78
75629;BME280;64213;46.452;16.994;2023-03-01T12:35:35;100670.97;;;3.42;98.74
75629;BME280;64213;46.452;16.994;2023-03-01T12:38:41;100670.84;;;3.47;98.69
75629;BME280;64213;46.452;16.994;2023-03-01T12:45:32;100658.69;;;3.46;98.22
75629;BME280;64213;46.452;16.994;2023-03-01T12:55:50;100652.44;;;3.52;97.99
75629;BME280;64213;46.452;16.994;2023-03-01T13:02:24;100643.84;;;3.46;97.92
75629;BME280;64213;46.452;16.994;2023-03-01T13:08:40;100647.13;;;3.55;98.00
75629;BME280;64213;46.452;16.994;2023-03-01T13:11:45;100635.78;;;3.54;98.08
75629;BME280;64213;46.452;16.994;2023-03-01T13:14:47;100621.13;;;3.48;97.74
75629;BME280;64213;46.452;16.994;2023-03-01T13:18:04;100617.47;;;3.56;97.74
75629;BME280;64213;46.452;16.994;2023-03-01T13:21:30;100613.69;;;3.66;97.71
75629;BME280;64213;46.452;16.994;2023-03-01T13:24:37;100610.97;;;3.70;97.22
75629;BME280;64213;46.452;16.994;2023-03-01T13:27:41;100603.91;;;3.74;97.25
75629;BME280;64213;46.452;16.994;2023-03-01T13:30:45;100599.63;;;3.70;97.14
75629;BME280;64213;46.452;16.994;2023-03-01T13:33:56;100594.59;;;3.64;97.22
75629;BME280;64213;46.452;16.994;2023-03-01T13:37:18;100587.44;;;3.70;96.89
75629;BME280;64213;46.452;16.994;2023-03-01T13:43:31;100589.91;;;3.75;96.31
75629;BME280;64213;46.452;16.994;2023-03-01T13:46:35;100586.28;;;3.81;96.23
75629;BME280;64213;46.452;16.994;2023-03-01T13:52:55;100583.75;;;3.78;95.56
75629;BME280;64213;46.452;16.994;2023-03-01T13:56:17;100580.28;;;3.77;95.47
75629;BME280;64213;46.452;16.994;2023-03-01T13:59:22;100580.81;;;3.88;95.46
75629;BME280;64213;46.452;16.994;2023-03-01T14:02:24;100578.19;;;3.88;95.20
75629;BME280;64213;46.452;16.994;2023-03-01T14:05:26;100571.03;;;3.95;95.22
75629;BME280;64213;46.452;16.994;2023-03-01T14:08:30;100572.87;;;3.91;94.96
75629;BME280;64213;46.452;16.994;2023-03-01T14:15:25;100567.62;;;3.93;95.02
75629;BME280;64213;46.452;16.994;2023-03-01T14:18:38;100563.16;;;3.96;94.68
75629;BME280;64213;46.452;16.994;2023-03-01T14:21:46;100568.34;;;3.98;94.47
75629;BME280;64213;46.452;16.994;2023-03-01T14:24:55;100560.53;;;3.96;94.48
75629;BME280;64213;46.452;16.994;2023-03-01T14:28:01;100557.78;;;4.01;94.38
75629;BME280;64213;46.452;16.994;2023-03-01T14:34:46;100549.97;;;4.00;93.98
75629;BME280;64213;46.452;16.994;2023-03-01T14:37:48;100545.50;;;4.03;94.09
75629;BME280;64213;46.452;16.994;2023-03-01T14:40:57;100537.56;;;4.06;94.15
75629;BME280;64213;46.452;16.994;2023-03-01T14:44:03;100540.22;;;4.05;93.80
75629;BME280;64213;46.452;16.994;2023-03-01T14:47:15;100527.88;;;4.08;93.79
75629;BME280;64213;46.452;16.994;2023-03-01T14:50:32;100521.81;;;4.08;93.70
75629;BME280;64213;46.452;16.994;2023-03-01T14:53:34;100517.38;;;4.10;93.78
75629;BME280;64213;46.452;16.994;2023-03-01T14:56:52;100506.81;;;4.13;93.77
75629;BME280;64213;46.452;16.994;2023-03-01T14:59:58;100496.44;;;4.10;94.09
75629;BME280;64213;46.452;16.994;2023-03-01T15:03:08;100482.44;;;4.11;94.21
75629;BME280;64213;46.452;16.994;2023-03-01T15:06:18;100459.78;;;4.10;94.82
75629;BME280;64213;46.452;16.994;2023-03-01T15:09:22;100455.19;;;4.18;95.21
75629;BME280;64213;46.452;16.994;2023-03-01T15:15:35;100464.75;;;4.19;95.20
75629;BME280;64213;46.452;16.994;2023-03-01T15:18:46;100466.63;;;4.15;95.52
75629;BME280;64213;46.452;16.994;2023-03-01T15:21:50;100462.34;;;4.11;95.61
75629;BME280;64213;46.452;16.994;2023-03-01T15:24:52;100475.31;;;4.16;95.70
75629;BME280;64213;46.452;16.994;2023-03-01T15:27:56;100473.66;;;4.13;95.63
75629;BME280;64213;46.452;16.994;2023-03-01T15:31:05;100474.37;;;4.18;95.78
75629;BME280;64213;46.452;16.994;2023-03-01T15:34:39;100462.72;;;4.27;95.91
75629;BME280;64213;46.452;16.994;2023-03-01T15:37:46;100469.56;;;4.33;95.78
75629;BME280;64213;46.452;16.994;2023-03-01T15:40:52;100474.03;;;4.29;95.61
75629;BME280;64213;46.452;16.994;2023-03-01T15:43:55;100473.03;;;4.33;95.64
75629;BME280;64213;46.452;16.994;2023-03-01T15:46:57;100468.69;;;4.32;95.53
75629;BME280;64213;46.452;16.994;2023-03-01T15:50:01;100459.12;;;4.31;95.38
75629;BME280;64213;46.452;16.994;2023-03-01T15:53:08;100465.31;;;4.29;95.41
75629;BME280;64213;46.452;16.994;2023-03-01T15:56:12;100465.25;;;4.30;95.29
75629;BME280;64213;46.452;16.994;2023-03-01T15:59:16;100473.03;;;4.33;95.18
75629;BME280;64213;46.452;16.994;2023-03-01T16:02:19;100478.13;;;4.38;95.24
75629;BME280;64213;46.452;16.994;2023-03-01T16:05:28;100472.22;;;4.31;94.98
75629;BME280;64213;46.452;16.994;2023-03-01T16:08:30;100479.09;;;4.35;95.01
75629;BME280;64213;46.452;16.994;2023-03-01T16:11:34;100483.38;;;4.38;94.90
75629;BME280;64213;46.452;16.994;2023-03-01T16:14:38;100486.03;;;4.36;94.70
75629;BME280;64213;46.452;16.994;2023-03-01T16:17:41;100484.31;;;4.35;94.48
75629;BME280;64213;46.452;16.994;2023-03-01T16:20:46;100484.31;;;4.35;94.65
75629;BME280;64213;46.452;16.994;2023-03-01T16:23:50;100486.94;;;4.35;94.52
75629;BME280;64213;46.452;16.994;2023-03-01T16:26:53;100491.22;;;4.38;94.52
75629;BME280;64213;46.452;16.994;2023-03-01T16:29:55;100491.25;;;4.36;94.52
75629;BME280;64213;46.452;16.994;2023-03-01T16:32:57;100493.00;;;4.37;94.33
75629;BME280;64213;46.452;16.994;2023-03-01T16:36:06;100496.59;;;4.33;94.39
75629;BME280;64213;46.452;16.994;2023-03-01T16:39:10;100496.59;;;4.33;94.33
75629;BME280;64213;46.452;16.994;2023-03-01T16:42:12;100503.56;;;4.34;94.25
75629;BME280;64213;46.452;16.994;2023-03-01T16:45:15;100497.50;;;4.32;94.37
75629;BME280;64213;46.452;16.994;2023-03-01T16:48:27;100506.19;;;4.34;94.32
75629;BME280;64213;46.452;16.994;2023-03-01T16:51:30;100508.81;;;4.34;94.44
75629;BME280;64213;46.452;16.994;2023-03-01T16:54:36;100510.53;;;4.34;94.28
75629;BME280;64213;46.452;16.994;2023-03-01T16:57:40;100508.91;;;4.31;94.51
75629;BME280;64213;46.452;16.994;2023-03-01T17:00:45;100509.75;;;4.32;94.29
75629;BME280;64213;46.452;16.994;2023-03-01T17:03:50;100507.06;;;4.33;94.16
75629;BME280;64213;46.452;16.994;2023-03-01T17:06:55;100512.31;;;4.33;94.09
75629;BME280;64213;46.452;16.994;2023-03-01T17:10:00;100514.13;;;4.31;93.97
75629;BME280;64213;46.452;16.994;2023-03-01T17:13:04;100515.75;;;4.35;94.29
75629;BME280;64213;46.452;16.994;2023-03-01T17:16:11;100516.66;;;4.34;94.12
75629;BME280;64213;46.452;16.994;2023-03-01T17:19:17;100522.75;;;4.35;94.13
75629;BME280;64213;46.452;16.994;2023-03-01T17:22:20;100520.16;;;4.33;94.19
75629;BME280;64213;46.452;16.994;2023-03-01T17:25:23;100521.94;;;4.33;94.41
75629;BME280;64213;46.452;16.994;2023-03-01T17:28:28;100526.31;;;4.32;94.32
75629;BME280;64213;46.452;16.994;2023-03-01T17:31:32;100532.37;;;4.34;93.96